sensor_id;sensor_type;location;lat;lon;timestamp;temperature;humidity
47336;DHT22;33068;51.990;5.926;2023-10-09T00:00:14;13.40;99.90
47336;DHT22;33068;51.990;5.926;2023-10-09T00:03:01;13.40;99.90
47336;DHT22;33068;51.990;5.926;2023-10-09T00:05:30;13.40;99.90
47336;DHT22;33068;51.990;5.926;2023-10-09T00:08:05;13.50;99.90
47336;DHT22;33068;51.990;5.926;2023-10-09T00:10:34;13.50;99.90
47336;DHT22;33068;51.990;5.926;2023-10-09T00:13:11;13.50;99.90
47336;DHT22;33068;51.990;5.926;2023-10-09T00:15:39;13.60;99.90
47336;DHT22;33068;51.990;5.926;2023-10-09T00:18:07;13.60;99.90
47336;DHT22;33068;51.990;5.926;2023-10-09T00:20:38;13.60;99.90
47336;DHT22;33068;51.990;5.926;2023-10-09T00:23:08;13.60;99.90
47336;DHT22;33068;51.990;5.926;2023-10-09T00:25:48;13.60;99.90
47336;DHT22;33068;51.990;5.926;2023-10-09T00:28:33;13.60;99.90
47336;DHT22;33068;51.990;5.926;2023-10-09T00:31:03;13.60;99.90
47336;DHT22;33068;51.990;5.926;2023-10-09T00:33:33;13.70;99.90
47336;DHT22;33068;51.990;5.926;2023-10-09T00:36:04;13.70;99.90
47336;DHT22;33068;51.990;5.926;2023-10-09T00:38:36;13.70;99.90
47336;DHT22;33068;51.990;5.926;2023-10-09T00:41:04;13.70;99.90
47336;DHT22;33068;51.990;5.926;2023-10-09T00:43:37;13.70;99.90
47336;DHT22;33068;51.990;5.926;2023-10-09T00:46:10;13.60;99.90
47336;DHT22;33068;51.990;5.926;2023-10-09T00:48:52;13.60;99.90
47336;DHT22;33068;51.990;5.926;2023-10-09T00:51:22;13.60;99.90
47336;DHT22;33068;51.990;5.926;2023-10-09T00:53:52;13.60;99.90
47336;DHT22;33068;51.990;5.926;2023-10-09T00:56:22;13.60;99.90
47336;DHT22;33068;51.990;5.926;2023-10-09T00:59:03;13.60;99.90
47336;DHT22;33068;51.990;5.926;2023-10-09T01:01:37;13.60;99.90
47336;DHT22;33068;51.990;5.926;2023-10-09T01:04:06;13.60;99.90
47336;DHT22;33068;51.990;5.926;2023-10-09T01:06:36;13.60;99.90
47336;DHT22;33068;51.990;5.926;2023-10-09T01:09:10;13.60;99.90
47336;DHT22;33068;51.990;5.926;2023-10-09T01:11:38;13.60;99.90
47336;DHT22;33068;51.990;5.926;2023-10-09T01:14:14;13.60;99.90
47336;DHT22;33068;51.990;5.926;2023-10-09T01:16:43;13.70;99.90
47336;DHT22;33068;51.990;5.926;2023-10-09T01:19:13;13.70;99.90
47336;DHT22;33068;51.990;5.926;2023-10-09T01:21:47;13.80;99.90
47336;DHT22;33068;51.990;5.926;2023-10-09T01:24:17;13.70;99.90
47336;DHT22;33068;51.990;5.926;2023-10-09T01:26:46;13.80;99.90
47336;DHT22;33068;51.990;5.926;2023-10-09T01:29:15;13.80;99.90
47336;DHT22;33068;51.990;5.926;2023-10-09T01:31:45;13.80;99.90
47336;DHT22;33068;51.990;5.926;2023-10-09T01:34:21;13.90;99.90
47336;DHT22;33068;51.990;5.926;2023-10-09T01:36:52;13.90;99.90
47336;DHT22;33068;51.990;5.926;2023-10-09T01:39:23;13.90;99.90
47336;DHT22;33068;51.990;5.926;2023-10-09T01:41:52;13.90;99.90
47336;DHT22;33068;51.990;5.926;2023-10-09T01:44:25;13.90;99.90
47336;DHT22;33068;51.990;5.926;2023-10-09T01:47:00;13.90;99.90
47336;DHT22;33068;51.990;5.926;2023-10-09T01:49:33;14.00;99.90
47336;DHT22;33068;51.990;5.926;2023-10-09T01:52:03;13.90;99.90
47336;DHT22;33068;51.990;5.926;2023-10-09T01:54:37;14.00;99.90
47336;DHT22;33068;51.990;5.926;2023-10-09T01:57:06;14.00;99.90
47336;DHT22;33068;51.990;5.926;2023-10-09T01:59:35;14.10;99.90
47336;DHT22;33068;51.990;5.926;2023-10-09T02:02:10;14.10;99.90
47336;DHT22;33068;51.990;5.926;2023-10-09T02:04:53;14.10;99.90
47336;DHT22;33068;51.990;5.926;2023-10-09T02:07:32;14.10;99.90
47336;DHT22;33068;51.990;5.926;2023-10-09T02:10:10;14.20;99.90
47336;DHT22;33068;51.990;5.926;2023-10-09T02:12:50;14.20;99.90
47336;DHT22;33068;51.990;5.926;2023-10-09T02:15:23;14.20;99.90
47336;DHT22;33068;51.990;5.926;2023-10-09T02:18:04;14.20;99.90
47336;DHT22;33068;51.990;5.926;2023-10-09T02:20:43;14.30;99.90
47336;DHT22;33068;51.990;5.926;2023-10-09T02:23:11;14.20;99.90
47336;DHT22;33068;51.990;5.926;2023-10-09T02:25:42;14.20;99.90
47336;DHT22;33068;51.990;5.926;2023-10-09T02:28:10;14.20;99.90
47336;DHT22;33068;51.990;5.926;2023-10-09T02:30:43;14.30;99.90
47336;DHT22;33068;51.990;5.926;2023-10-09T02:33:13;14.30;99.90
47336;DHT22;33068;51.990;5.926;2023-10-09T02:35:44;14.30;99.90
47336;DHT22;33068;51.990;5.926;2023-10-09T02:38:17;14.30;99.90
47336;DHT22;33068;51.990;5.926;2023-10-09T02:40:50;14.30;99.90
47336;DHT22;33068;51.990;5.926;2023-10-09T02:43:35;14.30;99.90
47336;DHT22;33068;51.990;5.926;2023-10-09T02:46:10;14.30;99.90
47336;DHT22;33068;51.990;5.926;2023-10-09T02:48:41;14.30;99.90
47336;DHT22;33068;51.990;5.926;2023-10-09T02:51:13;14.30;99.90
47336;DHT22;33068;51.990;5.926;2023-10-09T02:53:48;14.30;99.90
47336;DHT22;33068;51.990;5.926;2023-10-09T02:56:19;14.40;99.90
47336;DHT22;33068;51.990;5.926;2023-10-09T02:58:50;14.40;99.90
47336;DHT22;33068;51.990;5.926;2023-10-09T03:01:17;14.40;99.90
47336;DHT22;33068;51.990;5.926;2023-10-09T03:03:45;14.40;99.90
47336;DHT22;33068;51.990;5.926;2023-10-09T03:06:13;14.40;99.90
47336;DHT22;33068;51.990;5.926;2023-10-09T03:08:45;14.40;99.90
47336;DHT22;33068;51.990;5.926;2023-10-09T03:11:14;14.30;99.90
47336;DHT22;33068;51.990;5.926;2023-10-09T03:13:43;14.40;99.90
47336;DHT22;33068;51.990;5.926;2023-10-09T03:16:11;14.40;99.90
47336;DHT22;33068;51.990;5.926;2023-10-09T03:18:46;14.40;99.90
47336;DHT22;33068;51.990;5.926;2023-10-09T03:21:13;14.40;99.90
47336;DHT22;33068;51.990;5.926;2023-10-09T03:23:44;14.50;99.90
47336;DHT22;33068;51.990;5.926;2023-10-09T03:26:15;14.50;99.90
47336;DHT22;33068;51.990;5.926;2023-10-09T03:28:45;14.50;99.90
47336;DHT22;33068;51.990;5.926;2023-10-09T03:31:12;14.50;99.90
47336;DHT22;33068;51.990;5.926;2023-10-09T03:33:39;14.50;99.90
47336;DHT22;33068;51.990;5.926;2023-10-09T03:36:07;14.50;99.90
47336;DHT22;33068;51.990;5.926;2023-10-09T03:38:35;14.60;99.90
47336;DHT22;33068;51.990;5.926;2023-10-09T03:41:02;14.50;99.90
47336;DHT22;33068;51.990;5.926;2023-10-09T03:43:33;14.50;99.90
47336;DHT22;33068;51.990;5.926;2023-10-09T03:46:08;14.50;99.90
47336;DHT22;33068;51.990;5.926;2023-10-09T03:48:41;14.50;99.90
47336;DHT22;33068;51.990;5.926;2023-10-09T03:51:09;14.50;99.90
47336;DHT22;33068;51.990;5.926;2023-10-09T03:53:38;14.50;99.90
47336;DHT22;33068;51.990;5.926;2023-10-09T03:56:06;14.50;99.90
47336;DHT22;33068;51.990;5.926;2023-10-09T03:58:38;14.60;99.90
47336;DHT22;33068;51.990;5.926;2023-10-09T04:01:10;14.60;99.90
47336;DHT22;33068;51.990;5.926;2023-10-09T04:03:44;14.60;99.90
47336;DHT22;33068;51.990;5.926;2023-10-09T04:06:11;14.60;99.90
47336;DHT22;33068;51.990;5.926;2023-10-09T04:08:38;14.50;99.90
47336;DHT22;33068;51.990;5.926;2023-10-09T04:11:13;14.50;99.90
47336;DHT22;33068;51.990;5.926;2023-10-09T04:13:44;14.50;99.90
47336;DHT22;33068;51.990;5.926;2023-10-09T04:16:13;14.60;99.90
47336;DHT22;33068;51.990;5.926;2023-10-09T04:19:16;14.70;99.90
47336;DHT22;33068;51.990;5.926;2023-10-09T04:21:48;14.80;99.90
47336;DHT22;33068;51.990;5.926;2023-10-09T04:24:14;14.80;99.90
47336;DHT22;33068;51.990;5.926;2023-10-09T04:26:50;14.70;99.90
47336;DHT22;33068;51.990;5.926;2023-10-09T04:29:28;14.70;99.90
47336;DHT22;33068;51.990;5.926;2023-10-09T04:32:06;14.80;99.90
47336;DHT22;33068;51.990;5.926;2023-10-09T04:34:42;14.90;99.90
47336;DHT22;33068;51.990;5.926;2023-10-09T04:37:14;14.90;99.90
47336;DHT22;33068;51.990;5.926;2023-10-09T04:39:50;15.00;99.90
47336;DHT22;33068;51.990;5.926;2023-10-09T04:42:27;15.00;99.90
47336;DHT22;33068;51.990;5.926;2023-10-09T04:45:03;15.00;99.90
47336;DHT22;33068;51.990;5.926;2023-10-09T04:48:08;15.00;99.90
47336;DHT22;33068;51.990;5.926;2023-10-09T04:50:35;14.90;99.90
47336;DHT22;33068;51.990;5.926;2023-10-09T04:53:33;15.00;99.90
47336;DHT22;33068;51.990;5.926;2023-10-09T04:56:09;15.00;99.90
47336;DHT22;33068;51.990;5.926;2023-10-09T04:58:41;14.90;99.90
47336;DHT22;33068;51.990;5.926;2023-10-09T05:01:23;14.90;99.90
47336;DHT22;33068;51.990;5.926;2023-10-09T05:04:04;15.00;99.90
47336;DHT22;33068;51.990;5.926;2023-10-09T05:06:41;15.00;99.90
47336;DHT22;33068;51.990;5.926;2023-10-09T05:09:21;15.10;99.90
47336;DHT22;33068;51.990;5.926;2023-10-09T05:12:17;15.10;99.90
47336;DHT22;33068;51.990;5.926;2023-10-09T05:16:22;15.10;99.90
47336;DHT22;33068;51.990;5.926;2023-10-09T05:44:45;15.20;99.90
47336;DHT22;33068;51.990;5.926;2023-10-09T05:47:38;15.30;99.90
47336;DHT22;33068;51.990;5.926;2023-10-09T05:50:13;15.30;99.90
47336;DHT22;33068;51.990;5.926;2023-10-09T05:52:58;15.40;99.90
47336;DHT22;33068;51.990;5.926;2023-10-09T05:55:33;15.30;99.90
47336;DHT22;33068;51.990;5.926;2023-10-09T05:58:35;15.40;99.90
47336;DHT22;33068;51.990;5.926;2023-10-09T06:01:21;15.50;99.90
47336;DHT22;33068;51.990;5.926;2023-10-09T06:04:05;15.40;99.90
47336;DHT22;33068;51.990;5.926;2023-10-09T06:06:41;15.40;99.90
47336;DHT22;33068;51.990;5.926;2023-10-09T06:09:12;15.30;99.90
47336;DHT22;33068;51.990;5.926;2023-10-09T06:11:57;15.40;99.90
47336;DHT22;33068;51.990;5.926;2023-10-09T06:14:38;15.40;99.90
47336;DHT22;33068;51.990;5.926;2023-10-09T06:17:25;15.40;99.90
47336;DHT22;33068;51.990;5.926;2023-10-09T06:20:09;15.40;99.90
47336;DHT22;33068;51.990;5.926;2023-10-09T06:23:05;15.40;99.90
47336;DHT22;33068;51.990;5.926;2023-10-09T06:25:42;15.40;99.90
47336;DHT22;33068;51.990;5.926;2023-10-09T06:28:17;15.40;99.90
47336;DHT22;33068;51.990;5.926;2023-10-09T06:30:58;15.40;99.90
47336;DHT22;33068;51.990;5.926;2023-10-09T06:33:48;15.40;99.90
47336;DHT22;33068;51.990;5.926;2023-10-09T06:36:33;15.40;99.90
47336;DHT22;33068;51.990;5.926;2023-10-09T06:39:01;15.50;99.90
47336;DHT22;33068;51.990;5.926;2023-10-09T06:41:42;15.50;99.90
47336;DHT22;33068;51.990;5.926;2023-10-09T06:44:11;15.50;99.90
47336;DHT22;33068;51.990;5.926;2023-10-09T06:46:58;15.60;99.90
47336;DHT22;33068;51.990;5.926;2023-10-09T06:49:35;15.60;99.90
47336;DHT22;33068;51.990;5.926;2023-10-09T06:52:02;15.60;99.90
47336;DHT22;33068;51.990;5.926;2023-10-09T06:54:42;15.60;99.90
47336;DHT22;33068;51.990;5.926;2023-10-09T06:57:17;15.60;99.90
47336;DHT22;33068;51.990;5.926;2023-10-09T07:00:06;15.60;99.90
47336;DHT22;33068;51.990;5.926;2023-10-09T07:02:51;15.70;99.90
47336;DHT22;33068;51.990;5.926;2023-10-09T07:05:20;15.70;99.90
47336;DHT22;33068;51.990;5.926;2023-10-09T07:07:57;15.70;99.90
47336;DHT22;33068;51.990;5.926;2023-10-09T07:10:44;15.80;99.90
47336;DHT22;33068;51.990;5.926;2023-10-09T07:13:28;15.80;99.90
47336;DHT22;33068;51.990;5.926;2023-10-09T07:15:55;15.80;99.90
47336;DHT22;33068;51.990;5.926;2023-10-09T07:18:40;15.80;99.90
47336;DHT22;33068;51.990;5.926;2023-10-09T07:21:16;15.90;99.90
47336;DHT22;33068;51.990;5.926;2023-10-09T07:23:54;15.90;99.90
47336;DHT22;33068;51.990;5.926;2023-10-09T07:26:24;16.00;99.90
47336;DHT22;33068;51.990;5.926;2023-10-09T07:29:03;16.00;99.90
47336;DHT22;33068;51.990;5.926;2023-10-09T07:31:48;16.00;99.90
47336;DHT22;33068;51.990;5.926;2023-10-09T07:34:24;16.00;99.90
47336;DHT22;33068;51.990;5.926;2023-10-09T07:37:20;16.10;99.90
47336;DHT22;33068;51.990;5.926;2023-10-09T07:39:49;16.10;99.90
47336;DHT22;33068;51.990;5.926;2023-10-09T07:42:23;16.20;99.90
47336;DHT22;33068;51.990;5.926;2023-10-09T07:45:00;16.20;99.90
47336;DHT22;33068;51.990;5.926;2023-10-09T07:47:38;16.20;99.90
47336;DHT22;33068;51.990;5.926;2023-10-09T07:50:27;16.30;99.90
47336;DHT22;33068;51.990;5.926;2023-10-09T07:53:06;16.30;99.90
47336;DHT22;33068;51.990;5.926;2023-10-09T07:55:44;16.30;99.90
47336;DHT22;33068;51.990;5.926;2023-10-09T07:58:20;16.30;99.90
47336;DHT22;33068;51.990;5.926;2023-10-09T08:00:52;16.40;99.90
47336;DHT22;33068;51.990;5.926;2023-10-09T08:03:41;16.40;99.90
47336;DHT22;33068;51.990;5.926;2023-10-09T08:06:12;16.40;99.90
47336;DHT22;33068;51.990;5.926;2023-10-09T08:08:58;16.40;99.90
47336;DHT22;33068;51.990;5.926;2023-10-09T08:11:44;16.50;99.90
47336;DHT22;33068;51.990;5.926;2023-10-09T08:14:40;16.50;99.90
47336;DHT22;33068;51.990;5.926;2023-10-09T08:17:09;16.60;99.90
47336;DHT22;33068;51.990;5.926;2023-10-09T08:19:42;16.70;99.90
47336;DHT22;33068;51.990;5.926;2023-10-09T08:22:24;16.80;99.90
47336;DHT22;33068;51.990;5.926;2023-10-09T08:25:10;16.90;99.90
47336;DHT22;33068;51.990;5.926;2023-10-09T08:27:54;16.90;99.90
47336;DHT22;33068;51.990;5.926;2023-10-09T08:30:21;17.00;99.90
47336;DHT22;33068;51.990;5.926;2023-10-09T08:33:06;17.10;99.90
47336;DHT22;33068;51.990;5.926;2023-10-09T08:35:55;17.10;99.90
47336;DHT22;33068;51.990;5.926;2023-10-09T08:38:27;17.10;99.90
47336;DHT22;33068;51.990;5.926;2023-10-09T08:41:08;17.20;99.90
47336;DHT22;33068;51.990;5.926;2023-10-09T08:43:51;17.20;99.90
47336;DHT22;33068;51.990;5.926;2023-10-09T08:46:23;17.30;99.90
47336;DHT22;33068;51.990;5.926;2023-10-09T08:48:53;17.30;99.90
47336;DHT22;33068;51.990;5.926;2023-10-09T08:51:22;17.40;99.90
47336;DHT22;33068;51.990;5.926;2023-10-09T08:53:51;17.40;99.90
47336;DHT22;33068;51.990;5.926;2023-10-09T08:56:20;17.50;99.90
47336;DHT22;33068;51.990;5.926;2023-10-09T08:58:50;17.50;99.90
47336;DHT22;33068;51.990;5.926;2023-10-09T09:01:18;17.60;99.90
47336;DHT22;33068;51.990;5.926;2023-10-09T09:03:47;17.70;99.90
47336;DHT22;33068;51.990;5.926;2023-10-09T09:06:17;17.80;99.90
47336;DHT22;33068;51.990;5.926;2023-10-09T09:08:45;17.80;99.90
47336;DHT22;33068;51.990;5.926;2023-10-09T09:11:14;17.90;99.90
47336;DHT22;33068;51.990;5.926;2023-10-09T09:13:45;17.90;99.90
47336;DHT22;33068;51.990;5.926;2023-10-09T09:16:16;18.00;99.90
47336;DHT22;33068;51.990;5.926;2023-10-09T09:18:51;18.00;99.90
47336;DHT22;33068;51.990;5.926;2023-10-09T09:21:22;18.00;99.90
47336;DHT22;33068;51.990;5.926;2023-10-09T09:23:57;18.10;99.90
47336;DHT22;33068;51.990;5.926;2023-10-09T09:26:35;18.10;99.90
47336;DHT22;33068;51.990;5.926;2023-10-09T09:29:05;18.20;99.90
47336;DHT22;33068;51.990;5.926;2023-10-09T09:31:33;18.30;99.90
47336;DHT22;33068;51.990;5.926;2023-10-09T09:34:05;18.30;99.90
47336;DHT22;33068;51.990;5.926;2023-10-09T09:36:49;18.50;99.90
47336;DHT22;33068;51.990;5.926;2023-10-09T09:39:23;18.50;99.90
47336;DHT22;33068;51.990;5.926;2023-10-09T09:41:55;18.60;99.90
47336;DHT22;33068;51.990;5.926;2023-10-09T09:44:25;18.70;99.90
47336;DHT22;33068;51.990;5.926;2023-10-09T09:46:57;18.70;99.90
47336;DHT22;33068;51.990;5.926;2023-10-09T09:49:27;18.80;99.90
47336;DHT22;33068;51.990;5.926;2023-10-09T09:52:00;18.90;99.90
47336;DHT22;33068;51.990;5.926;2023-10-09T09:54:36;19.00;99.90
47336;DHT22;33068;51.990;5.926;2023-10-09T09:57:04;19.10;99.90
47336;DHT22;33068;51.990;5.926;2023-10-09T09:59:38;19.20;99.90
47336;DHT22;33068;51.990;5.926;2023-10-09T10:02:22;19.30;99.90
47336;DHT22;33068;51.990;5.926;2023-10-09T10:04:57;19.30;99.90
47336;DHT22;33068;51.990;5.926;2023-10-09T10:07:27;19.40;99.90
47336;DHT22;33068;51.990;5.926;2023-10-09T10:09:56;19.40;99.90
47336;DHT22;33068;51.990;5.926;2023-10-09T10:12:50;19.50;99.90
47336;DHT22;33068;51.990;5.926;2023-10-09T10:15:59;19.60;99.90
47336;DHT22;33068;51.990;5.926;2023-10-09T10:18:54;19.60;99.90
47336;DHT22;33068;51.990;5.926;2023-10-09T10:21:25;19.70;99.90
47336;DHT22;33068;51.990;5.926;2023-10-09T10:27:19;19.70;99.90
47336;DHT22;33068;51.990;5.926;2023-10-09T10:32:58;19.90;99.90
47336;DHT22;33068;51.990;5.926;2023-10-09T10:35:36;19.90;99.90
47336;DHT22;33068;51.990;5.926;2023-10-09T10:38:26;19.90;99.90
47336;DHT22;33068;51.990;5.926;2023-10-09T10:41:15;19.90;99.90
47336;DHT22;33068;51.990;5.926;2023-10-09T10:43:48;20.00;99.90
47336;DHT22;33068;51.990;5.926;2023-10-09T10:46:25;20.00;99.90
47336;DHT22;33068;51.990;5.926;2023-10-09T10:49:05;20.10;99.90
47336;DHT22;33068;51.990;5.926;2023-10-09T10:51:47;20.10;99.90
47336;DHT22;33068;51.990;5.926;2023-10-09T10:54:27;20.10;99.90
47336;DHT22;33068;51.990;5.926;2023-10-09T10:57:19;20.20;99.90
47336;DHT22;33068;51.990;5.926;2023-10-09T10:59:55;20.20;99.90
47336;DHT22;33068;51.990;5.926;2023-10-09T11:02:43;20.20;99.90
47336;DHT22;33068;51.990;5.926;2023-10-09T11:05:10;20.30;99.90
47336;DHT22;33068;51.990;5.926;2023-10-09T11:07:57;20.50;99.90
47336;DHT22;33068;51.990;5.926;2023-10-09T11:10:26;20.70;99.90
47336;DHT22;33068;51.990;5.926;2023-10-09T11:12:57;20.70;99.90
47336;DHT22;33068;51.990;5.926;2023-10-09T11:15:42;20.80;99.90
47336;DHT22;33068;51.990;5.926;2023-10-09T11:18:22;20.70;99.90
47336;DHT22;33068;51.990;5.926;2023-10-09T11:20:54;20.70;99.90
47336;DHT22;33068;51.990;5.926;2023-10-09T11:23:44;20.80;99.90
47336;DHT22;33068;51.990;5.926;2023-10-09T11:26:24;20.90;99.90
47336;DHT22;33068;51.990;5.926;2023-10-09T11:29:08;21.00;99.90
47336;DHT22;33068;51.990;5.926;2023-10-09T11:31:42;21.00;99.90
47336;DHT22;33068;51.990;5.926;2023-10-09T11:34:23;20.90;99.90
47336;DHT22;33068;51.990;5.926;2023-10-09T11:37:02;20.90;99.90
47336;DHT22;33068;51.990;5.926;2023-10-09T11:39:31;21.00;99.90
47336;DHT22;33068;51.990;5.926;2023-10-09T11:42:09;21.20;99.90
47336;DHT22;33068;51.990;5.926;2023-10-09T11:44:57;21.30;99.90
47336;DHT22;33068;51.990;5.926;2023-10-09T11:47:34;21.40;99.90
47336;DHT22;33068;51.990;5.926;2023-10-09T11:50:01;21.50;99.90
47336;DHT22;33068;51.990;5.926;2023-10-09T11:52:57;21.60;99.90
47336;DHT22;33068;51.990;5.926;2023-10-09T11:55:44;21.60;99.90
47336;DHT22;33068;51.990;5.926;2023-10-09T11:58:14;21.70;99.90
47336;DHT22;33068;51.990;5.926;2023-10-09T12:00:52;21.60;99.90
47336;DHT22;33068;51.990;5.926;2023-10-09T12:03:24;21.60;99.90
47336;DHT22;33068;51.990;5.926;2023-10-09T12:05:55;21.60;99.90
47336;DHT22;33068;51.990;5.926;2023-10-09T12:08:24;21.60;99.90
47336;DHT22;33068;51.990;5.926;2023-10-09T12:10:54;21.70;99.90
47336;DHT22;33068;51.990;5.926;2023-10-09T12:13:22;21.70;99.90
47336;DHT22;33068;51.990;5.926;2023-10-09T12:15:50;21.90;99.90
47336;DHT22;33068;51.990;5.926;2023-10-09T12:21:42;21.80;99.90
47336;DHT22;33068;51.990;5.926;2023-10-09T12:24:10;21.80;99.90
47336;DHT22;33068;51.990;5.926;2023-10-09T12:26:38;21.80;99.90
47336;DHT22;33068;51.990;5.926;2023-10-09T12:29:08;21.80;99.90
47336;DHT22;33068;51.990;5.926;2023-10-09T12:31:36;21.90;99.90
47336;DHT22;33068;51.990;5.926;2023-10-09T12:34:04;21.90;99.90
47336;DHT22;33068;51.990;5.926;2023-10-09T12:36:31;21.90;99.90
47336;DHT22;33068;51.990;5.926;2023-10-09T12:39:03;21.90;99.90
47336;DHT22;33068;51.990;5.926;2023-10-09T12:41:32;21.80;99.90
47336;DHT22;33068;51.990;5.926;2023-10-09T12:44:01;21.70;99.90
47336;DHT22;33068;51.990;5.926;2023-10-09T12:46:28;21.60;99.90
47336;DHT22;33068;51.990;5.926;2023-10-09T12:49:03;21.60;99.90
47336;DHT22;33068;51.990;5.926;2023-10-09T12:51:31;21.50;99.90
47336;DHT22;33068;51.990;5.926;2023-10-09T12:53:58;21.40;99.90
47336;DHT22;33068;51.990;5.926;2023-10-09T12:56:27;21.30;99.90
47336;DHT22;33068;51.990;5.926;2023-10-09T12:58:59;21.30;99.90
47336;DHT22;33068;51.990;5.926;2023-10-09T13:01:27;21.30;99.90
47336;DHT22;33068;51.990;5.926;2023-10-09T13:03:57;21.10;99.90
47336;DHT22;33068;51.990;5.926;2023-10-09T13:06:25;21.20;99.90
47336;DHT22;33068;51.990;5.926;2023-10-09T13:08:53;21.20;99.90
47336;DHT22;33068;51.990;5.926;2023-10-09T13:11:25;21.10;99.90
47336;DHT22;33068;51.990;5.926;2023-10-09T13:13:52;21.10;99.90
47336;DHT22;33068;51.990;5.926;2023-10-09T13:16:22;21.10;99.90
47336;DHT22;33068;51.990;5.926;2023-10-09T13:18:50;21.10;99.90
47336;DHT22;33068;51.990;5.926;2023-10-09T13:21:18;21.10;99.90
47336;DHT22;33068;51.990;5.926;2023-10-09T13:23:45;21.00;99.90
47336;DHT22;33068;51.990;5.926;2023-10-09T13:26:15;21.00;99.90
47336;DHT22;33068;51.990;5.926;2023-10-09T13:28:51;21.00;99.90
47336;DHT22;33068;51.990;5.926;2023-10-09T13:31:21;20.90;99.90
47336;DHT22;33068;51.990;5.926;2023-10-09T13:33:51;20.90;99.90
47336;DHT22;33068;51.990;5.926;2023-10-09T13:36:20;20.90;99.90
47336;DHT22;33068;51.990;5.926;2023-10-09T13:38:54;20.80;99.90
47336;DHT22;33068;51.990;5.926;2023-10-09T13:41:21;20.80;99.90
47336;DHT22;33068;51.990;5.926;2023-10-09T13:43:51;20.70;99.90
47336;DHT22;33068;51.990;5.926;2023-10-09T13:46:18;20.70;99.90
47336;DHT22;33068;51.990;5.926;2023-10-09T13:48:47;20.70;99.90
47336;DHT22;33068;51.990;5.926;2023-10-09T13:51:15;20.60;99.90
47336;DHT22;33068;51.990;5.926;2023-10-09T13:53:44;20.60;99.90
47336;DHT22;33068;51.990;5.926;2023-10-09T13:56:15;20.70;99.90
47336;DHT22;33068;51.990;5.926;2023-10-09T13:58:49;20.60;99.90
47336;DHT22;33068;51.990;5.926;2023-10-09T14:01:16;20.50;99.90
47336;DHT22;33068;51.990;5.926;2023-10-09T14:03:57;20.50;99.90
47336;DHT22;33068;51.990;5.926;2023-10-09T14:06:26;20.50;99.90
47336;DHT22;33068;51.990;5.926;2023-10-09T14:09:00;20.40;99.90
47336;DHT22;33068;51.990;5.926;2023-10-09T14:11:30;20.40;99.90
47336;DHT22;33068;51.990;5.926;2023-10-09T14:13:57;20.40;99.90
47336;DHT22;33068;51.990;5.926;2023-10-09T14:16:27;20.50;99.90
47336;DHT22;33068;51.990;5.926;2023-10-09T14:18:56;20.50;99.90
47336;DHT22;33068;51.990;5.926;2023-10-09T14:21:25;20.50;99.90
47336;DHT22;33068;51.990;5.926;2023-10-09T14:23:54;20.50;99.90
47336;DHT22;33068;51.990;5.926;2023-10-09T14:26:24;20.50;99.90
47336;DHT22;33068;51.990;5.926;2023-10-09T14:28:52;20.50;99.90
47336;DHT22;33068;51.990;5.926;2023-10-09T14:31:19;20.60;99.90
47336;DHT22;33068;51.990;5.926;2023-10-09T14:33:52;20.60;99.90
47336;DHT22;33068;51.990;5.926;2023-10-09T14:36:21;20.50;99.90
47336;DHT22;33068;51.990;5.926;2023-10-09T14:38:49;20.60;99.90
47336;DHT22;33068;51.990;5.926;2023-10-09T14:41:19;20.60;99.90
47336;DHT22;33068;51.990;5.926;2023-10-09T14:43:50;20.50;99.90
47336;DHT22;33068;51.990;5.926;2023-10-09T14:46:17;20.60;99.90
47336;DHT22;33068;51.990;5.926;2023-10-09T14:48:49;20.50;99.90
47336;DHT22;33068;51.990;5.926;2023-10-09T14:51:23;20.50;99.90
47336;DHT22;33068;51.990;5.926;2023-10-09T14:53:56;20.60;99.90
47336;DHT22;33068;51.990;5.926;2023-10-09T14:56:25;20.50;99.90
47336;DHT22;33068;51.990;5.926;2023-10-09T14:58:56;20.50;99.90
47336;DHT22;33068;51.990;5.926;2023-10-09T15:01:24;20.50;99.90
47336;DHT22;33068;51.990;5.926;2023-10-09T15:03:55;20.50;99.90
47336;DHT22;33068;51.990;5.926;2023-10-09T15:06:25;20.40;99.90
47336;DHT22;33068;51.990;5.926;2023-10-09T15:08:53;20.30;99.90
47336;DHT22;33068;51.990;5.926;2023-10-09T15:11:25;20.30;99.90
47336;DHT22;33068;51.990;5.926;2023-10-09T15:13:55;20.40;99.90
47336;DHT22;33068;51.990;5.926;2023-10-09T15:16:23;20.40;99.90
47336;DHT22;33068;51.990;5.926;2023-10-09T15:18:53;20.40;99.90
47336;DHT22;33068;51.990;5.926;2023-10-09T15:21:30;20.50;99.90
47336;DHT22;33068;51.990;5.926;2023-10-09T15:23:59;20.50;99.90
47336;DHT22;33068;51.990;5.926;2023-10-09T15:26:26;20.50;99.90
47336;DHT22;33068;51.990;5.926;2023-10-09T15:29:02;20.40;99.90
47336;DHT22;33068;51.990;5.926;2023-10-09T15:31:32;20.40;99.90
47336;DHT22;33068;51.990;5.926;2023-10-09T15:33:59;20.50;99.90
47336;DHT22;33068;51.990;5.926;2023-10-09T15:36:27;20.50;99.90
47336;DHT22;33068;51.990;5.926;2023-10-09T15:38:59;20.40;99.90
47336;DHT22;33068;51.990;5.926;2023-10-09T15:41:29;20.30;99.90
47336;DHT22;33068;51.990;5.926;2023-10-09T15:43:57;20.20;99.90
47336;DHT22;33068;51.990;5.926;2023-10-09T15:46:25;20.20;99.90
47336;DHT22;33068;51.990;5.926;2023-10-09T15:48:53;20.00;99.90
47336;DHT22;33068;51.990;5.926;2023-10-09T15:51:21;20.00;99.90
47336;DHT22;33068;51.990;5.926;2023-10-09T16:13:15;19.80;99.90
47336;DHT22;33068;51.990;5.926;2023-10-09T16:15:44;19.70;99.90
47336;DHT22;33068;51.990;5.926;2023-10-09T16:18:11;19.70;99.90
47336;DHT22;33068;51.990;5.926;2023-10-09T16:20:38;19.70;99.90
47336;DHT22;33068;51.990;5.926;2023-10-09T16:23:05;19.60;99.90
47336;DHT22;33068;51.990;5.926;2023-10-09T16:25:35;19.60;99.90
47336;DHT22;33068;51.990;5.926;2023-10-09T16:28:02;19.60;99.90
47336;DHT22;33068;51.990;5.926;2023-10-09T16:30:31;19.60;99.90
47336;DHT22;33068;51.990;5.926;2023-10-09T16:32:58;19.50;99.90
47336;DHT22;33068;51.990;5.926;2023-10-09T16:35:26;19.50;99.90
47336;DHT22;33068;51.990;5.926;2023-10-09T16:37:53;19.50;99.90
47336;DHT22;33068;51.990;5.926;2023-10-09T16:40:20;19.40;99.90
47336;DHT22;33068;51.990;5.926;2023-10-09T16:42:48;19.40;99.90
47336;DHT22;33068;51.990;5.926;2023-10-09T16:45:19;19.40;99.90
47336;DHT22;33068;51.990;5.926;2023-10-09T16:47:48;19.30;99.90
47336;DHT22;33068;51.990;5.926;2023-10-09T16:50:17;19.30;99.90
47336;DHT22;33068;51.990;5.926;2023-10-09T16:52:45;19.30;99.90
47336;DHT22;33068;51.990;5.926;2023-10-09T16:55:12;19.30;99.90
47336;DHT22;33068;51.990;5.926;2023-10-09T16:57:55;19.30;99.90
47336;DHT22;33068;51.990;5.926;2023-10-09T17:00:23;19.20;99.90
47336;DHT22;33068;51.990;5.926;2023-10-09T17:02:57;19.20;99.90
47336;DHT22;33068;51.990;5.926;2023-10-09T17:05:26;19.20;99.90
47336;DHT22;33068;51.990;5.926;2023-10-09T17:07:59;19.10;99.90